createdAt,value
2022-08-19T00:00:46.288Z,4.10
2022-08-19T00:03:14.945Z,4.20
2022-08-19T00:05:44.698Z,4.35
2022-08-19T00:08:13.367Z,3.85
2022-08-19T00:10:41.747Z,3.30
2022-08-19T00:13:10.481Z,3.38
2022-08-19T00:15:38.935Z,2.97
2022-08-19T00:18:07.439Z,3.47
2022-08-19T00:20:35.827Z,3.10
2022-08-19T00:23:05.688Z,3.20
2022-08-19T00:25:34.385Z,3.80
2022-08-19T00:28:02.794Z,3.63
2022-08-19T00:30:31.227Z,3.00
2022-08-19T00:32:59.737Z,2.78
2022-08-19T00:35:29.107Z,2.70
2022-08-19T00:37:57.716Z,1.70
2022-08-19T00:40:28.129Z,2.65
2022-08-19T00:42:56.637Z,2.53
2022-08-19T00:45:28.009Z,2.38
2022-08-19T00:47:56.401Z,2.25
2022-08-19T00:50:24.945Z,2.40
2022-08-19T00:52:57.053Z,2.17
2022-08-19T00:55:31.226Z,2.55
2022-08-19T00:58:01.468Z,2.33
2022-08-19T01:00:30.417Z,2.20
2022-08-19T01:02:58.881Z,2.08
2022-08-19T01:05:30.594Z,2.30
2022-08-19T01:07:59.863Z,2.00
2022-08-19T01:10:34.754Z,2.70
2022-08-19T01:13:05.763Z,2.38
2022-08-19T01:15:35.369Z,2.80
2022-08-19T01:18:04.907Z,2.63
2022-08-19T01:20:35.422Z,2.72
2022-08-19T01:23:06.078Z,2.80
2022-08-19T01:25:37.165Z,2.35
2022-08-19T01:28:11.177Z,2.88
2022-08-19T01:30:39.936Z,3.50
2022-08-19T01:33:12.948Z,3.75
2022-08-19T01:35:41.370Z,4.63
2022-08-19T01:38:12.502Z,5.10
2022-08-19T01:40:43.191Z,5.20
2022-08-19T01:43:11.819Z,6.20
2022-08-19T01:45:41.162Z,6.63
2022-08-19T01:48:11.521Z,6.45
2022-08-19T01:50:39.878Z,6.35
2022-08-19T01:53:09.602Z,5.90
2022-08-19T01:55:42.215Z,8.73
2022-08-19T01:58:12.720Z,8.10
2022-08-19T02:00:41.127Z,7.55
2022-08-19T02:03:11.015Z,7.45
2022-08-19T02:05:39.676Z,7.57
2022-08-19T02:08:08.378Z,7.20
2022-08-19T02:10:36.741Z,9.77
2022-08-19T02:13:06.484Z,8.82
2022-08-19T02:15:34.833Z,7.55
2022-08-19T02:18:03.211Z,10.43
2022-08-19T02:20:31.600Z,9.45
2022-08-19T02:22:59.967Z,9.15
2022-08-19T02:25:28.297Z,10.43
2022-08-19T02:27:56.663Z,12.35
2022-08-19T02:30:26.671Z,9.68
2022-08-19T02:32:55.292Z,12.32
2022-08-19T02:35:24.092Z,13.68
2022-08-19T02:38:09.972Z,12.73
2022-08-19T02:40:38.478Z,12.80
2022-08-19T02:43:08.298Z,13.75
2022-08-19T02:45:40.402Z,11.40
2022-08-19T02:48:14.919Z,12.25
2022-08-19T02:50:53.914Z,13.80
2022-08-19T02:53:23.121Z,12.15
2022-08-19T02:55:52.296Z,12.27
2022-08-19T02:58:21.268Z,12.07
2022-08-19T03:00:52.605Z,15.43
2022-08-19T03:03:21.691Z,15.05
2022-08-19T03:05:56.843Z,14.57
2022-08-19T03:08:26.578Z,18.75
2022-08-19T03:10:55.685Z,17.98
2022-08-19T03:13:24.491Z,17.55
2022-08-19T03:15:54.195Z,16.25
2022-08-19T03:18:23.171Z,18.95
2022-08-19T03:20:53.818Z,18.38
2022-08-19T03:23:22.428Z,19.30
2022-08-19T03:25:58.390Z,18.33
2022-08-19T03:28:40.497Z,17.75
2022-08-19T03:31:41.705Z,19.75
2022-08-19T03:34:01.000Z,18.90
2022-08-19T03:36:29.891Z,21.05
2022-08-19T03:39:00.107Z,22.13
2022-08-19T03:41:44.455Z,21.92
2022-08-19T03:44:18.533Z,23.73
2022-08-19T03:46:49.643Z,24.35
2022-08-19T03:49:18.738Z,22.85
2022-08-19T03:51:48.995Z,26.95
2022-08-19T03:54:18.473Z,23.17
2022-08-19T03:56:48.284Z,24.20
2022-08-19T03:59:21.103Z,26.30
2022-08-19T04:01:50.828Z,26.23
2022-08-19T04:04:20.013Z,26.05
2022-08-19T04:06:48.862Z,29.38
2022-08-19T04:09:17.315Z,29.25
2022-08-19T04:11:47.608Z,24.95
2022-08-19T04:14:18.379Z,31.20
2022-08-19T04:16:47.387Z,30.65
2022-08-19T04:19:17.851Z,27.15
2022-08-19T04:21:47.472Z,28.38
2022-08-19T04:24:15.827Z,27.75
2022-08-19T04:26:44.243Z,32.30
2022-08-19T04:29:13.723Z,34.75
2022-08-19T04:31:42.954Z,32.42
2022-08-19T04:34:12.340Z,29.50
2022-08-19T04:36:43.167Z,26.10
2022-08-19T04:39:12.890Z,31.88
2022-08-19T04:41:58.752Z,28.42
2022-08-19T04:44:27.588Z,29.05
2022-08-19T04:46:57.003Z,28.63
2022-08-19T04:49:26.432Z,26.90
2022-08-19T04:51:56.829Z,27.35
2022-08-19T04:54:37.235Z,27.80
2022-08-19T04:57:10.650Z,27.98
2022-08-19T04:59:39.572Z,27.70
2022-08-19T05:02:09.619Z,27.92
2022-08-19T05:04:40.261Z,25.98
2022-08-19T05:07:10.913Z,26.55
2022-08-19T05:09:55.746Z,28.40
2022-08-19T05:12:29.293Z,25.50
2022-08-19T05:14:58.681Z,23.58
2022-08-19T05:17:28.984Z,24.67
2022-08-19T05:20:18.209Z,22.52
2022-08-19T05:22:49.298Z,23.67
2022-08-19T05:25:20.430Z,26.60
2022-08-19T05:27:49.899Z,27.58
2022-08-19T05:30:18.553Z,24.27
2022-08-19T05:32:48.774Z,24.02
2022-08-19T05:35:17.201Z,23.67
2022-08-19T05:37:45.590Z,23.67
2022-08-19T05:40:15.417Z,22.55
2022-08-19T05:42:43.816Z,23.15
2022-08-19T05:45:15.196Z,23.17
2022-08-19T05:47:43.575Z,25.38
2022-08-19T05:50:11.939Z,27.50
2022-08-19T05:52:43.626Z,21.52
2022-08-19T05:55:15.871Z,22.10
2022-08-19T05:57:44.227Z,23.70
2022-08-19T06:00:13.448Z,22.95
2022-08-19T06:02:42.211Z,24.88
2022-08-19T06:05:11.095Z,23.40
2022-08-19T06:07:40.143Z,24.20
2022-08-19T06:10:09.761Z,28.20
2022-08-19T06:12:39.503Z,26.33
2022-08-19T06:15:09.665Z,23.65
2022-08-19T06:17:38.114Z,27.95
2022-08-19T06:20:07.616Z,29.02
2022-08-19T06:22:40.015Z,29.63
2022-08-19T06:25:10.091Z,28.85
2022-08-19T06:27:58.681Z,30.77
2022-08-19T06:30:28.927Z,29.45
2022-08-19T06:32:57.480Z,31.40
2022-08-19T06:35:26.355Z,29.55
2022-08-19T06:37:55.200Z,31.48
2022-08-19T06:40:23.863Z,28.50
2022-08-19T06:42:54.939Z,32.53
2022-08-19T06:45:24.539Z,29.83
2022-08-19T06:47:57.000Z,31.45
2022-08-19T06:50:25.778Z,33.97
2022-08-19T06:52:55.223Z,37.50
2022-08-19T06:55:24.162Z,36.97
2022-08-19T06:57:54.523Z,35.42
2022-08-19T07:00:23.215Z,31.98
2022-08-19T07:02:55.833Z,32.83
2022-08-19T07:05:27.814Z,35.63
2022-08-19T07:07:59.719Z,34.03
2022-08-19T07:10:33.049Z,32.45
2022-08-19T07:13:02.781Z,30.55
2022-08-19T07:15:31.789Z,30.27
2022-08-19T07:18:00.231Z,29.35
2022-08-19T07:20:29.595Z,32.22
2022-08-19T07:22:59.069Z,31.38
2022-08-19T07:25:32.240Z,34.38
2022-08-19T07:28:03.217Z,33.10
2022-08-19T07:30:32.750Z,35.42
2022-08-19T07:33:03.749Z,34.78
2022-08-19T07:35:33.024Z,36.58
2022-08-19T07:38:03.555Z,36.88
2022-08-19T07:40:32.419Z,29.67
2022-08-19T07:43:00.801Z,30.95
2022-08-19T07:45:31.036Z,33.40
2022-08-19T07:48:00.216Z,35.45
2022-08-19T07:50:29.448Z,36.40
2022-08-19T07:52:58.057Z,39.33
2022-08-19T07:55:41.708Z,34.90
2022-08-19T07:58:12.474Z,35.20
2022-08-19T08:00:42.471Z,40.38
2022-08-19T08:03:10.886Z,37.55
2022-08-19T08:05:56.956Z,37.25
2022-08-19T08:08:44.049Z,34.20
2022-08-19T08:11:19.902Z,35.80
2022-08-19T08:14:00.428Z,36.35
2022-08-19T08:16:32.222Z,40.47
2022-08-19T08:19:01.328Z,37.50
2022-08-19T08:21:29.746Z,40.40
2022-08-19T08:26:31.539Z,41.85
2022-08-19T08:29:02.946Z,40.83
2022-08-19T08:31:43.451Z,36.13
2022-08-19T08:34:12.220Z,42.65
2022-08-19T08:36:42.810Z,39.40
2022-08-19T08:39:11.256Z,44.30
2022-08-19T08:41:47.533Z,43.35
2022-08-19T08:44:19.947Z,39.95
2022-08-19T08:46:52.720Z,43.20
2022-08-19T08:49:28.710Z,44.05
2022-08-19T08:52:03.172Z,42.35
2022-08-19T08:54:34.948Z,45.03
2022-08-19T08:57:05.550Z,40.20
2022-08-19T08:59:36.362Z,43.90
2022-08-19T09:02:06.143Z,44.72
2022-08-19T09:04:34.509Z,38.05
2022-08-19T09:07:18.094Z,40.38
2022-08-19T09:10:01.020Z,47.17
2022-08-19T09:12:35.344Z,46.70
2022-08-19T09:15:05.844Z,44.85
2022-08-19T09:17:36.345Z,44.47
2022-08-19T09:20:09.401Z,48.65
2022-08-19T09:22:38.095Z,47.83
2022-08-19T09:25:07.750Z,47.00
2022-08-19T09:27:43.157Z,46.78
2022-08-19T09:30:14.260Z,46.70
2022-08-19T09:32:44.360Z,47.53
2022-08-19T09:35:13.541Z,44.17
2022-08-19T09:37:43.202Z,49.22
2022-08-19T09:40:12.290Z,43.65
2022-08-19T09:42:50.334Z,48.28
2022-08-19T09:45:22.883Z,46.78
2022-08-19T09:47:54.355Z,47.38
2022-08-19T09:50:23.787Z,48.13
2022-08-19T09:52:57.213Z,44.15
2022-08-19T09:55:31.648Z,46.75
2022-08-19T09:58:02.473Z,39.38
2022-08-19T10:00:31.203Z,41.47
2022-08-19T10:03:01.147Z,37.13
2022-08-19T10:05:48.511Z,38.33
2022-08-19T10:08:18.069Z,39.45
2022-08-19T10:10:47.247Z,40.72
2022-08-19T10:13:16.667Z,42.70
2022-08-19T10:15:48.157Z,45.13
2022-08-19T10:18:19.905Z,41.83
2022-08-19T10:20:51.780Z,38.28
2022-08-19T10:23:21.705Z,41.70
2022-08-19T10:25:50.618Z,45.17
2022-08-19T10:28:19.675Z,40.85
2022-08-19T10:30:48.844Z,40.35
2022-08-19T10:33:36.533Z,42.08
2022-08-19T10:36:08.091Z,38.10
2022-08-19T10:38:36.609Z,43.78
2022-08-19T10:41:12.025Z,41.40
2022-08-19T10:43:40.858Z,43.30
2022-08-19T10:46:14.138Z,50.65
2022-08-19T10:48:47.189Z,43.95
2022-08-19T10:51:33.148Z,45.83
2022-08-19T10:54:02.575Z,39.10
2022-08-19T10:56:52.963Z,42.17
2022-08-19T10:59:22.502Z,31.02
2022-08-19T11:01:55.751Z,34.65
2022-08-19T11:04:29.567Z,34.92
2022-08-19T11:06:58.581Z,29.85
2022-08-19T11:09:33.531Z,22.20
2022-08-19T11:12:04.858Z,24.88
2022-08-19T11:14:34.489Z,21.05
2022-08-19T11:17:03.310Z,23.52
2022-08-19T11:19:33.377Z,20.30
2022-08-19T11:22:05.673Z,20.65
2022-08-19T11:24:34.710Z,19.90
2022-08-19T11:27:06.410Z,25.58
2022-08-19T11:29:35.760Z,22.63
2022-08-19T11:32:06.723Z,22.77
2022-08-19T11:34:36.540Z,29.52
2022-08-19T11:37:06.786Z,18.65
2022-08-19T11:39:36.587Z,20.65
2022-08-19T11:42:26.034Z,17.83
2022-08-19T11:44:54.513Z,15.40
2022-08-19T11:47:23.021Z,16.00
2022-08-19T11:49:54.429Z,14.10
2022-08-19T11:52:22.818Z,12.77
2022-08-19T11:54:51.281Z,10.10
2022-08-19T11:57:20.729Z,8.20
2022-08-19T11:59:54.302Z,8.90
2022-08-19T12:02:22.783Z,10.82
2022-08-19T12:04:52.514Z,12.93
2022-08-19T12:07:21.412Z,13.30
2022-08-19T12:09:50.276Z,13.50
2022-08-19T12:12:18.850Z,14.55
2022-08-19T12:14:47.547Z,17.65
2022-08-19T12:17:16.239Z,16.00
2022-08-19T12:19:45.404Z,17.88
2022-08-19T12:22:15.138Z,16.17
2022-08-19T12:24:43.658Z,16.77
2022-08-19T12:27:12.822Z,15.75
2022-08-19T12:29:42.530Z,17.42
2022-08-19T12:32:12.069Z,15.40
2022-08-19T12:34:41.409Z,12.90
2022-08-19T12:37:10.072Z,13.98
2022-08-19T12:39:42.420Z,13.73
2022-08-19T12:42:11.181Z,12.65
2022-08-19T12:44:41.595Z,9.07
2022-08-19T12:47:11.674Z,7.60
2022-08-19T12:49:54.544Z,9.02
2022-08-19T12:52:24.903Z,10.15
2022-08-19T12:54:55.337Z,7.00
2022-08-19T12:57:32.197Z,7.20
2022-08-19T13:00:02.169Z,8.10
2022-08-19T13:02:38.573Z,8.50
2022-08-19T13:05:09.163Z,7.20
2022-08-19T13:07:38.223Z,8.30
2022-08-19T13:10:09.782Z,10.70
2022-08-19T13:12:38.166Z,9.23
2022-08-19T13:15:10.823Z,10.38
2022-08-19T13:17:40.194Z,11.02
2022-08-19T13:20:09.679Z,8.75
2022-08-19T13:22:38.453Z,10.50
2022-08-19T13:25:09.309Z,9.25
2022-08-19T13:27:38.215Z,10.68
2022-08-19T13:30:22.240Z,11.38
2022-08-19T13:33:07.608Z,10.70
2022-08-19T13:35:36.023Z,9.43
2022-08-19T13:38:05.777Z,11.45
2022-08-19T13:40:39.275Z,11.02
2022-08-19T13:43:13.600Z,12.50
2022-08-19T13:45:52.293Z,12.65
2022-08-19T13:48:20.642Z,11.27
2022-08-19T13:50:49.168Z,14.95
2022-08-19T13:53:17.973Z,13.73
2022-08-19T13:55:47.874Z,14.43
2022-08-19T13:58:16.306Z,14.52
2022-08-19T14:00:46.299Z,13.68
2022-08-19T14:03:14.763Z,15.68
2022-08-19T14:05:43.262Z,16.75
2022-08-19T14:08:13.228Z,16.65
2022-08-19T14:10:41.778Z,17.60
2022-08-19T14:13:11.557Z,21.02
2022-08-19T14:15:40.600Z,18.70
2022-08-19T14:18:08.967Z,19.58
2022-08-19T14:20:37.388Z,17.70
2022-08-19T14:23:07.118Z,18.40
2022-08-19T14:25:36.238Z,21.08
2022-08-19T14:28:04.820Z,20.33
2022-08-19T14:30:37.954Z,20.40
2022-08-19T14:33:08.010Z,22.02
2022-08-19T14:35:36.500Z,16.25
2022-08-19T14:38:05.780Z,20.20
2022-08-19T14:40:35.684Z,17.83
2022-08-19T14:43:06.373Z,19.67
2022-08-19T14:45:38.052Z,18.70
2022-08-19T14:48:06.737Z,15.90
2022-08-19T14:50:35.387Z,17.48
2022-08-19T14:53:11.928Z,18.23
2022-08-19T14:55:43.858Z,21.13
2022-08-19T14:58:29.231Z,18.25
2022-08-19T15:01:01.256Z,17.23
2022-08-19T15:03:30.050Z,17.25
2022-08-19T15:05:58.907Z,22.98
2022-08-19T15:08:27.809Z,18.17
2022-08-19T15:10:56.419Z,17.52
2022-08-19T15:13:25.616Z,18.80
2022-08-19T15:15:54.060Z,19.50
2022-08-19T15:18:23.932Z,16.52
2022-08-19T15:20:52.315Z,19.85
2022-08-19T15:23:21.926Z,18.52
2022-08-19T15:25:55.915Z,17.60
2022-08-19T15:28:25.253Z,17.88
2022-08-19T15:30:53.802Z,15.77
2022-08-19T15:33:23.523Z,14.85
2022-08-19T15:35:52.613Z,13.10
2022-08-19T15:38:22.101Z,13.40
2022-08-19T15:40:50.953Z,10.90
2022-08-19T15:43:21.278Z,12.45
2022-08-19T15:45:50.219Z,11.18
2022-08-19T15:48:18.734Z,11.13
2022-08-19T15:50:48.462Z,11.02
2022-08-19T15:53:16.948Z,12.82
2022-08-19T15:55:48.562Z,11.80
2022-08-19T15:58:35.102Z,14.43
2022-08-19T16:01:22.320Z,13.77
2022-08-19T16:04:13.880Z,11.30
2022-08-19T16:06:47.332Z,9.02
2022-08-19T16:09:16.107Z,11.02
2022-08-19T16:11:46.194Z,9.90
2022-08-19T16:14:15.257Z,9.10
2022-08-19T16:16:46.763Z,10.43
2022-08-19T16:19:16.573Z,9.35
2022-08-19T16:21:47.159Z,10.00
2022-08-19T16:24:16.691Z,11.23
2022-08-19T16:26:45.927Z,11.10
2022-08-19T16:29:15.185Z,10.43
2022-08-19T16:31:58.807Z,10.13
2022-08-19T16:34:27.199Z,9.25
2022-08-19T16:36:57.131Z,11.35
2022-08-19T16:39:25.506Z,9.80
2022-08-19T16:41:53.994Z,9.57
2022-08-19T16:44:22.572Z,10.43
2022-08-19T16:46:58.487Z,11.07
2022-08-19T16:49:53.027Z,12.75
2022-08-19T16:52:18.198Z,9.55
2022-08-19T16:54:46.776Z,11.77
2022-08-19T16:57:16.573Z,13.23
2022-08-19T16:59:48.928Z,14.05
2022-08-19T17:02:18.245Z,13.68
2022-08-19T17:04:55.975Z,12.45
2022-08-19T17:07:27.731Z,16.05
2022-08-19T17:09:56.265Z,14.75
2022-08-19T17:12:29.022Z,16.48
2022-08-19T17:14:59.321Z,12.70
2022-08-19T17:17:29.326Z,16.38
2022-08-19T17:19:58.605Z,14.02
2022-08-19T17:22:28.518Z,14.40
2022-08-19T17:24:58.353Z,14.77
2022-08-19T17:27:32.542Z,13.23
2022-08-19T17:30:02.366Z,16.25
2022-08-19T17:32:31.073Z,16.45
2022-08-19T17:34:59.488Z,12.13
2022-08-19T17:37:29.598Z,13.30
2022-08-19T17:39:58.278Z,15.45
2022-08-19T17:42:26.833Z,16.25
2022-08-19T17:44:59.479Z,14.88
2022-08-19T17:47:28.450Z,16.10
2022-08-19T17:49:56.997Z,11.73
2022-08-19T17:52:25.645Z,12.57
2022-08-19T17:54:55.366Z,13.82
2022-08-19T17:57:24.384Z,14.15
2022-08-19T17:59:52.785Z,14.63
2022-08-19T18:02:22.354Z,14.98
2022-08-19T18:04:50.867Z,16.70
2022-08-19T18:07:21.631Z,14.18
2022-08-19T18:09:52.584Z,14.75
2022-08-19T18:12:26.529Z,13.82
2022-08-19T18:14:54.938Z,12.85
2022-08-19T18:17:24.455Z,12.73
2022-08-19T18:19:52.882Z,12.73
2022-08-19T18:22:26.530Z,15.13
2022-08-19T18:24:55.126Z,13.80
2022-08-19T18:27:24.956Z,13.43
2022-08-19T18:29:54.551Z,12.27
2022-08-19T18:32:25.833Z,15.10
2022-08-19T18:34:56.119Z,12.68
2022-08-19T18:37:26.710Z,13.23
2022-08-19T18:40:12.968Z,13.40
2022-08-19T18:43:17.378Z,13.07
2022-08-19T18:46:04.421Z,12.90
2022-08-19T18:48:53.551Z,12.82
2022-08-19T18:51:27.756Z,12.45
2022-08-19T18:53:58.757Z,12.30
2022-08-19T18:56:31.788Z,11.05
2022-08-19T18:59:02.112Z,11.00
2022-08-19T19:01:33.401Z,12.38
2022-08-19T19:04:03.585Z,11.05
2022-08-19T19:06:34.955Z,10.20
2022-08-19T19:09:03.431Z,10.88
2022-08-19T19:11:33.878Z,12.63
2022-08-19T19:14:04.049Z,12.93
2022-08-19T19:16:32.673Z,13.85
2022-08-19T19:19:01.056Z,13.57
2022-08-19T19:21:34.050Z,14.43
2022-08-19T19:24:03.358Z,14.05
2022-08-19T19:26:31.858Z,13.52
2022-08-19T19:29:00.264Z,12.90
2022-08-19T19:31:33.492Z,13.98
2022-08-19T19:34:01.852Z,13.75
2022-08-19T19:36:30.255Z,12.98
2022-08-19T19:38:58.588Z,12.23
2022-08-19T19:41:27.000Z,15.40
2022-08-19T19:44:16.381Z,14.38
2022-08-19T19:46:45.732Z,14.65
2022-08-19T19:49:14.118Z,12.85
2022-08-19T19:51:43.365Z,16.30
2022-08-19T19:54:13.852Z,12.45
2022-08-19T19:56:43.367Z,13.38
2022-08-19T19:59:11.712Z,13.05
2022-08-19T20:01:40.796Z,13.10
2022-08-19T20:04:14.125Z,15.18
2022-08-19T20:06:42.594Z,11.27
2022-08-19T20:09:10.827Z,14.05
2022-08-19T20:11:41.070Z,11.25
2022-08-19T20:14:11.613Z,11.80
2022-08-19T20:16:43.397Z,13.40
2022-08-19T20:19:13.203Z,15.65
2022-08-19T20:21:46.732Z,15.80
2022-08-19T20:24:18.856Z,14.00
2022-08-19T20:26:48.762Z,16.05
2022-08-19T20:29:38.738Z,12.93
2022-08-19T20:32:09.176Z,19.13
2022-08-19T20:34:38.103Z,17.95
2022-08-19T20:37:09.485Z,17.40
2022-08-19T20:39:38.258Z,19.40
2022-08-19T20:42:06.944Z,20.77
2022-08-19T20:44:35.581Z,21.77
2022-08-19T20:47:04.336Z,20.08
2022-08-19T20:49:32.971Z,22.70
2022-08-19T20:52:01.340Z,18.50
2022-08-19T20:54:31.173Z,22.90
2022-08-19T20:56:59.570Z,21.45
2022-08-19T20:59:28.048Z,19.13
2022-08-19T21:01:57.124Z,20.02
2022-08-19T21:04:26.368Z,20.80
2022-08-19T21:06:55.102Z,21.92
2022-08-19T21:09:23.528Z,22.70
2022-08-19T21:11:53.697Z,20.90
2022-08-19T21:14:23.159Z,19.15
2022-08-19T21:16:51.549Z,21.48
2022-08-19T21:19:23.720Z,20.23
2022-08-19T21:21:52.572Z,19.50
2022-08-19T21:24:20.976Z,21.73
2022-08-19T21:26:51.442Z,22.08
2022-08-19T21:29:21.337Z,24.80
2022-08-19T21:31:50.255Z,24.92
2022-08-19T21:34:18.650Z,22.73
2022-08-19T21:36:47.133Z,22.75
2022-08-19T21:39:15.519Z,23.02
2022-08-19T21:41:43.971Z,22.77
2022-08-19T21:44:12.360Z,25.30
2022-08-19T21:46:42.104Z,17.35
2022-08-19T21:49:10.454Z,19.80
2022-08-19T21:51:38.852Z,19.13
2022-08-19T21:54:07.292Z,17.17
2022-08-19T21:56:42.445Z,16.75
2022-08-19T21:59:10.854Z,19.15
2022-08-19T22:01:39.267Z,15.73
2022-08-19T22:04:09.014Z,19.63
2022-08-19T22:06:37.560Z,19.80
2022-08-19T22:09:06.020Z,18.13
2022-08-19T22:11:34.611Z,17.75
2022-08-19T22:14:04.393Z,17.70
2022-08-19T22:16:33.727Z,23.25
2022-08-19T22:19:02.089Z,19.15
2022-08-19T22:21:40.252Z,24.77
2022-08-19T22:24:10.066Z,20.73
2022-08-19T22:26:38.447Z,21.50
2022-08-19T22:29:07.498Z,25.42
2022-08-19T22:31:37.568Z,26.20
2022-08-19T22:34:06.936Z,25.73
2022-08-19T22:36:36.740Z,27.58
2022-08-19T22:39:05.829Z,25.15
2022-08-19T22:41:34.585Z,29.85
2022-08-19T22:44:03.843Z,25.38
2022-08-19T22:46:33.663Z,29.88
2022-08-19T22:49:02.060Z,28.98
2022-08-19T22:51:48.032Z,26.00
2022-08-19T22:54:18.054Z,33.00
2022-08-19T22:56:46.456Z,31.65
2022-08-19T22:59:14.909Z,31.65
2022-08-19T23:01:43.538Z,28.23
2022-08-19T23:04:12.403Z,31.38
2022-08-19T23:06:42.212Z,26.42
2022-08-19T23:09:16.626Z,26.15
2022-08-19T23:11:47.263Z,29.90
2022-08-19T23:14:15.953Z,28.58
2022-08-19T23:16:50.681Z,29.65
2022-08-19T23:19:19.294Z,26.60
2022-08-19T23:21:48.016Z,28.77
2022-08-19T23:24:16.934Z,29.80
2022-08-19T23:27:00.603Z,26.65
2022-08-19T23:29:47.361Z,28.88
2022-08-19T23:32:17.125Z,32.33
2022-08-19T23:34:45.652Z,32.55
2022-08-19T23:37:14.543Z,29.27
2022-08-19T23:39:43.577Z,35.42
2022-08-19T23:42:15.404Z,33.08
2022-08-19T23:44:51.228Z,31.30
2022-08-19T23:47:20.167Z,36.67
2022-08-19T23:49:48.642Z,39.40
2022-08-19T23:52:17.092Z,38.30
2022-08-19T23:54:45.464Z,36.75
2022-08-19T23:57:15.210Z,40.45
2022-08-19T23:59:45.276Z,37.58
